sensor_id;sensor_type;location;lat;lon;timestamp;pressure;altitude;pressure_sealevel;temperature;humidity
39267;BME280;24967;51.154;13.812;2023-05-14T00:01:26;99871.22;;;14.31;69.28
39267;BME280;24967;51.154;13.812;2023-05-14T00:03:53;99864.34;;;14.37;69.12
39267;BME280;24967;51.154;13.812;2023-05-14T00:06:19;99862.97;;;13.92;70.11
39267;BME280;24967;51.154;13.812;2023-05-14T00:08:46;99859.81;;;14.13;70.08
39267;BME280;24967;51.154;13.812;2023-05-14T00:11:12;99865.00;;;13.98;70.01
39267;BME280;24967;51.154;13.812;2023-05-14T00:13:38;99860.47;;;13.98;69.77
39267;BME280;24967;51.154;13.812;2023-05-14T00:16:05;99858.97;;;13.96;69.88
39267;BME280;24967;51.154;13.812;2023-05-14T00:18:33;99860.81;;;13.95;69.96
39267;BME280;24967;51.154;13.812;2023-05-14T00:20:59;99859.44;;;13.91;69.81
39267;BME280;24967;51.154;13.812;2023-05-14T00:23:26;99847.28;;;13.89;69.64
39267;BME280;24967;51.154;13.812;2023-05-14T00:25:52;99843.75;;;13.88;69.72
39267;BME280;24967;51.154;13.812;2023-05-14T00:28:19;99845.59;;;13.88;69.72
39267;BME280;24967;51.154;13.812;2023-05-14T00:30:45;99845.06;;;13.84;69.73
39267;BME280;24967;51.154;13.812;2023-05-14T00:33:12;99838.56;;;13.87;70.09
39267;BME280;24967;51.154;13.812;2023-05-14T00:35:39;99841.72;;;13.82;70.10
39267;BME280;24967;51.154;13.812;2023-05-14T00:38:06;99841.41;;;13.77;69.87
39267;BME280;24967;51.154;13.812;2023-05-14T00:40:32;99837.03;;;13.76;69.78
39267;BME280;24967;51.154;13.812;2023-05-14T00:42:59;99829.34;;;13.73;70.21
39267;BME280;24967;51.154;13.812;2023-05-14T00:45:25;99833.72;;;13.74;69.94
39267;BME280;24967;51.154;13.812;2023-05-14T00:47:52;99838.88;;;13.75;70.04
39267;BME280;24967;51.154;13.812;2023-05-14T00:50:19;99831.19;;;13.72;70.55
39267;BME280;24967;51.154;13.812;2023-05-14T00:52:47;99834.88;;;13.71;70.97
39267;BME280;24967;51.154;13.812;2023-05-14T00:55:15;99838.53;;;13.70;71.13
39267;BME280;24967;51.154;13.812;2023-05-14T00:57:41;99835.72;;;13.72;71.28
39267;BME280;24967;51.154;13.812;2023-05-14T01:00:09;99839.06;;;13.74;71.10
39267;BME280;24967;51.154;13.812;2023-05-14T01:02:35;99836.88;;;13.78;71.33
39267;BME280;24967;51.154;13.812;2023-05-14T01:05:02;99833.38;;;13.77;71.18
39267;BME280;24967;51.154;13.812;2023-05-14T01:07:32;99825.50;;;13.67;71.58
39267;BME280;24967;51.154;13.812;2023-05-14T01:10:08;99826.25;;;13.43;72.41
39267;BME280;24967;51.154;13.812;2023-05-14T01:12:42;99819.97;;;13.52;72.09
39267;BME280;24967;51.154;13.812;2023-05-14T01:15:14;99819.00;;;13.62;72.33
39267;BME280;24967;51.154;13.812;2023-05-14T01:17:45;99814.47;;;13.62;72.02
39267;BME280;24967;51.154;13.812;2023-05-14T01:20:14;99815.44;;;13.45;72.53
39267;BME280;24967;51.154;13.812;2023-05-14T01:22:42;99809.63;;;13.49;72.31
39267;BME280;24967;51.154;13.812;2023-05-14T01:25:09;99812.28;;;13.49;72.35
39267;BME280;24967;51.154;13.812;2023-05-14T01:27:40;99814.97;;;13.49;72.45
39267;BME280;24967;51.154;13.812;2023-05-14T01:30:13;99810.59;;;13.48;72.46
39267;BME280;24967;51.154;13.812;2023-05-14T01:32:43;99813.94;;;13.50;72.26
39267;BME280;24967;51.154;13.812;2023-05-14T01:35:13;99809.75;;;13.48;72.00
39267;BME280;24967;51.154;13.812;2023-05-14T01:37:42;99806.25;;;13.47;72.01
39267;BME280;24967;51.154;13.812;2023-05-14T01:40:09;99811.28;;;13.50;72.01
39267;BME280;24967;51.154;13.812;2023-05-14T01:42:37;99799.59;;;13.51;72.00
39267;BME280;24967;51.154;13.812;2023-05-14T01:45:04;99795.94;;;13.52;71.96
39267;BME280;24967;51.154;13.812;2023-05-14T01:47:31;99807.25;;;13.38;72.49
39267;BME280;24967;51.154;13.812;2023-05-14T01:49:57;99807.75;;;13.42;72.33
39267;BME280;24967;51.154;13.812;2023-05-14T01:52:23;99801.06;;;13.38;72.67
39267;BME280;24967;51.154;13.812;2023-05-14T01:54:51;99806.22;;;13.39;72.79
39267;BME280;24967;51.154;13.812;2023-05-14T01:57:18;99800.19;;;13.37;72.47
39267;BME280;24967;51.154;13.812;2023-05-14T01:59:45;99806.09;;;13.41;72.54
39267;BME280;24967;51.154;13.812;2023-05-14T02:02:12;99804.75;;;13.45;72.61
39267;BME280;24967;51.154;13.812;2023-05-14T02:04:38;99805.44;;;13.47;72.56
39267;BME280;24967;51.154;13.812;2023-05-14T02:07:05;99800.25;;;13.45;72.43
39267;BME280;24967;51.154;13.812;2023-05-14T02:09:31;99799.06;;;13.40;72.47
39267;BME280;24967;51.154;13.812;2023-05-14T02:11:59;99799.19;;;13.30;73.03
39267;BME280;24967;51.154;13.812;2023-05-14T02:14:25;99797.53;;;13.29;73.52
39267;BME280;24967;51.154;13.812;2023-05-14T02:16:52;99794.78;;;13.21;73.77
39267;BME280;24967;51.154;13.812;2023-05-14T02:19:18;99801.13;;;13.20;74.31
39267;BME280;24967;51.154;13.812;2023-05-14T02:21:45;99791.50;;;13.27;73.82
39267;BME280;24967;51.154;13.812;2023-05-14T02:24:11;99798.50;;;13.28;73.80
39267;BME280;24967;51.154;13.812;2023-05-14T02:26:37;99801.34;;;13.26;74.60
39267;BME280;24967;51.154;13.812;2023-05-14T02:29:05;99795.50;;;13.31;74.49
39267;BME280;24967;51.154;13.812;2023-05-14T02:31:32;99791.03;;;13.32;74.52
39267;BME280;24967;51.154;13.812;2023-05-14T02:34:00;99783.84;;;13.32;74.25
39267;BME280;24967;51.154;13.812;2023-05-14T02:36:26;99797.72;;;13.36;74.16
39267;BME280;24967;51.154;13.812;2023-05-14T02:38:53;99797.03;;;13.34;74.03
39267;BME280;24967;51.154;13.812;2023-05-14T02:41:19;99800.34;;;13.27;74.00
39267;BME280;24967;51.154;13.812;2023-05-14T02:43:46;99791.88;;;13.32;73.83
39267;BME280;24967;51.154;13.812;2023-05-14T02:46:14;99789.84;;;13.34;73.57
39267;BME280;24967;51.154;13.812;2023-05-14T02:48:40;99792.19;;;13.29;73.75
39267;BME280;24967;51.154;13.812;2023-05-14T02:51:07;99794.53;;;13.32;73.94
39267;BME280;24967;51.154;13.812;2023-05-14T02:53:33;99792.19;;;13.29;73.77
39267;BME280;24967;51.154;13.812;2023-05-14T02:56:00;99787.34;;;13.33;73.53
39267;BME280;24967;51.154;13.812;2023-05-14T02:58:26;99790.53;;;13.36;73.00
39267;BME280;24967;51.154;13.812;2023-05-14T03:00:52;99785.47;;;13.25;73.31
39267;BME280;24967;51.154;13.812;2023-05-14T03:03:20;99789.97;;;13.24;73.09
39267;BME280;24967;51.154;13.812;2023-05-14T03:05:48;99790.59;;;13.18;72.92
39267;BME280;24967;51.154;13.812;2023-05-14T03:08:16;99789.63;;;13.19;72.84
39267;BME280;24967;51.154;13.812;2023-05-14T03:10:43;99786.59;;;13.14;73.04
39267;BME280;24967;51.154;13.812;2023-05-14T03:13:10;99791.75;;;13.07;72.87
39267;BME280;24967;51.154;13.812;2023-05-14T03:15:36;99788.53;;;13.04;72.57
39267;BME280;24967;51.154;13.812;2023-05-14T03:18:03;99793.53;;;12.99;72.50
39267;BME280;24967;51.154;13.812;2023-05-14T03:20:32;99784.84;;;12.97;72.77
39267;BME280;24967;51.154;13.812;2023-05-14T03:22:58;99783.84;;;12.98;72.26
39267;BME280;24967;51.154;13.812;2023-05-14T03:25:25;99785.69;;;12.97;72.09
39267;BME280;24967;51.154;13.812;2023-05-14T03:27:51;99785.34;;;12.92;71.99
39267;BME280;24967;51.154;13.812;2023-05-14T03:30:18;99780.31;;;12.89;71.66
39267;BME280;24967;51.154;13.812;2023-05-14T03:32:44;99780.78;;;12.84;71.49
39267;BME280;24967;51.154;13.812;2023-05-14T03:35:11;99787.59;;;12.79;71.39
39267;BME280;24967;51.154;13.812;2023-05-14T03:37:39;99786.94;;;12.77;71.48
39267;BME280;24967;51.154;13.812;2023-05-14T03:40:07;99783.06;;;12.71;71.71
39267;BME280;24967;51.154;13.812;2023-05-14T03:42:33;99778.88;;;12.69;71.69
39267;BME280;24967;51.154;13.812;2023-05-14T03:45:00;99777.31;;;12.58;71.66
39267;BME280;24967;51.154;13.812;2023-05-14T03:47:26;99772.78;;;12.50;71.86
39267;BME280;24967;51.154;13.812;2023-05-14T03:49:53;99764.41;;;12.45;72.02
39267;BME280;24967;51.154;13.812;2023-05-14T03:52:19;99768.22;;;12.43;72.10
39267;BME280;24967;51.154;13.812;2023-05-14T03:54:47;99765.84;;;12.40;72.48
39267;BME280;24967;51.154;13.812;2023-05-14T03:57:13;99764.66;;;12.34;72.43
39267;BME280;24967;51.154;13.812;2023-05-14T03:59:40;99759.81;;;12.29;73.04
39267;BME280;24967;51.154;13.812;2023-05-14T04:02:06;99763.44;;;12.28;73.11
39267;BME280;24967;51.154;13.812;2023-05-14T04:04:33;99757.97;;;12.30;73.40
39267;BME280;24967;51.154;13.812;2023-05-14T04:06:59;99767.50;;;12.32;73.57
39267;BME280;24967;51.154;13.812;2023-05-14T04:09:26;99761.31;;;12.32;73.46
39267;BME280;24967;51.154;13.812;2023-05-14T04:11:53;99755.63;;;12.27;73.56
39267;BME280;24967;51.154;13.812;2023-05-14T04:14:20;99759.50;;;12.32;73.49
39267;BME280;24967;51.154;13.812;2023-05-14T04:16:46;99762.09;;;12.24;73.00
39267;BME280;24967;51.154;13.812;2023-05-14T04:19:13;99765.63;;;12.07;72.61
39267;BME280;24967;51.154;13.812;2023-05-14T04:21:39;99759.16;;;12.09;72.10
39267;BME280;24967;51.154;13.812;2023-05-14T04:24:06;99760.63;;;11.86;71.79
39267;BME280;24967;51.154;13.812;2023-05-14T04:26:33;99766.03;;;11.94;71.76
39267;BME280;24967;51.154;13.812;2023-05-14T04:29:00;99759.41;;;11.98;71.34
39267;BME280;24967;51.154;13.812;2023-05-14T04:31:27;99762.84;;;11.90;71.74
39267;BME280;24967;51.154;13.812;2023-05-14T04:33:54;99764.06;;;11.96;71.79
39267;BME280;24967;51.154;13.812;2023-05-14T04:36:20;99758.25;;;12.01;72.18
39267;BME280;24967;51.154;13.812;2023-05-14T04:38:46;99756.06;;;11.96;72.86
39267;BME280;24967;51.154;13.812;2023-05-14T04:41:13;99745.22;;;11.98;73.81
39267;BME280;24967;51.154;13.812;2023-05-14T04:43:39;99755.53;;;11.93;75.00
39267;BME280;24967;51.154;13.812;2023-05-14T04:46:07;99757.41;;;12.00;74.89
39267;BME280;24967;51.154;13.812;2023-05-14T04:48:34;99748.06;;;11.96;76.00
39267;BME280;24967;51.154;13.812;2023-05-14T04:51:00;99742.66;;;11.88;78.45
39267;BME280;24967;51.154;13.812;2023-05-14T04:53:27;99744.56;;;11.96;79.11
39267;BME280;24967;51.154;13.812;2023-05-14T04:55:53;99750.56;;;11.98;79.91
39267;BME280;24967;51.154;13.812;2023-05-14T04:58:19;99747.97;;;12.06;80.27
39267;BME280;24967;51.154;13.812;2023-05-14T05:00:47;99748.66;;;12.08;80.38
39267;BME280;24967;51.154;13.812;2023-05-14T05:03:15;99750.00;;;12.12;81.53
39267;BME280;24967;51.154;13.812;2023-05-14T05:05:41;99750.91;;;12.21;81.87
39267;BME280;24967;51.154;13.812;2023-05-14T05:08:08;99747.31;;;12.30;82.10
39267;BME280;24967;51.154;13.812;2023-05-14T05:10:35;99748.72;;;12.42;81.47
39267;BME280;24967;51.154;13.812;2023-05-14T05:13:01;99745.50;;;12.65;80.71
39267;BME280;24967;51.154;13.812;2023-05-14T05:15:28;99748.72;;;12.76;80.92
39267;BME280;24967;51.154;13.812;2023-05-14T05:17:54;99749.13;;;12.90;80.97
39267;BME280;24967;51.154;13.812;2023-05-14T05:20:22;99746.34;;;12.99;79.25
39267;BME280;24967;51.154;13.812;2023-05-14T05:22:49;99743.69;;;13.50;78.79
39267;BME280;24967;51.154;13.812;2023-05-14T05:25:16;99728.16;;;14.03;76.54
39267;BME280;24967;51.154;13.812;2023-05-14T05:27:42;99732.41;;;14.77;74.85
39267;BME280;24967;51.154;13.812;2023-05-14T05:30:09;99732.72;;;15.45;72.30
39267;BME280;24967;51.154;13.812;2023-05-14T05:32:36;99725.34;;;16.16;68.33
39267;BME280;24967;51.154;13.812;2023-05-14T05:35:03;99732.16;;;16.86;65.46
39267;BME280;24967;51.154;13.812;2023-05-14T05:37:32;99726.84;;;17.44;63.14
39267;BME280;24967;51.154;13.812;2023-05-14T05:39:58;99735.06;;;18.00;60.82
39267;BME280;24967;51.154;13.812;2023-05-14T05:42:24;99731.34;;;18.57;59.61
39267;BME280;24967;51.154;13.812;2023-05-14T05:44:51;99724.78;;;19.08;56.93
39267;BME280;24967;51.154;13.812;2023-05-14T05:47:17;99720.72;;;19.32;55.68
39267;BME280;24967;51.154;13.812;2023-05-14T05:49:44;99722.06;;;19.69;54.74
39267;BME280;24967;51.154;13.812;2023-05-14T05:52:10;99714.84;;;19.89;54.23
39267;BME280;24967;51.154;13.812;2023-05-14T05:54:38;99721.28;;;20.22;54.05
39267;BME280;24967;51.154;13.812;2023-05-14T05:57:04;99715.38;;;20.78;52.42
39267;BME280;24967;51.154;13.812;2023-05-14T05:59:31;99711.13;;;21.02;50.78
39267;BME280;24967;51.154;13.812;2023-05-14T06:01:57;99718.34;;;21.21;50.86
39267;BME280;24967;51.154;13.812;2023-05-14T06:04:24;99720.56;;;21.31;51.55
39267;BME280;24967;51.154;13.812;2023-05-14T06:06:50;99715.09;;;21.44;51.41
39267;BME280;24967;51.154;13.812;2023-05-14T06:09:17;99715.63;;;21.60;48.48
39267;BME280;24967;51.154;13.812;2023-05-14T06:11:45;99710.22;;;21.91;50.54
39267;BME280;24967;51.154;13.812;2023-05-14T06:14:11;99711.84;;;22.24;49.09
39267;BME280;24967;51.154;13.812;2023-05-14T06:16:38;99716.22;;;22.44;49.28
39267;BME280;24967;51.154;13.812;2023-05-14T06:19:04;99713.16;;;22.77;47.96
39267;BME280;24967;51.154;13.812;2023-05-14T06:21:32;99704.59;;;22.98;47.07
39267;BME280;24967;51.154;13.812;2023-05-14T06:23:59;99701.25;;;23.15;46.47
39267;BME280;24967;51.154;13.812;2023-05-14T06:26:25;99699.06;;;23.23;45.27
39267;BME280;24967;51.154;13.812;2023-05-14T06:28:53;99701.66;;;23.18;46.68
39267;BME280;24967;51.154;13.812;2023-05-14T06:31:19;99695.72;;;23.09;47.53
39267;BME280;24967;51.154;13.812;2023-05-14T06:33:46;99701.19;;;23.21;45.65
39267;BME280;24967;51.154;13.812;2023-05-14T06:36:12;99702.94;;;23.16;45.03
39267;BME280;24967;51.154;13.812;2023-05-14T06:38:39;99696.97;;;22.89;47.40
39267;BME280;24967;51.154;13.812;2023-05-14T06:41:05;99693.22;;;23.08;46.27
39267;BME280;24967;51.154;13.812;2023-05-14T06:43:31;99703.16;;;22.96;47.88
39267;BME280;24967;51.154;13.812;2023-05-14T06:45:59;99700.59;;;23.01;49.05
39267;BME280;24967;51.154;13.812;2023-05-14T06:48:26;99698.63;;;23.08;47.79
39267;BME280;24967;51.154;13.812;2023-05-14T06:50:53;99700.13;;;23.22;47.58
39267;BME280;24967;51.154;13.812;2023-05-14T06:53:20;99700.78;;;23.18;47.12
39267;BME280;24967;51.154;13.812;2023-05-14T06:55:46;99697.66;;;23.32;46.86
39267;BME280;24967;51.154;13.812;2023-05-14T06:58:13;99691.09;;;23.10;46.38
39267;BME280;24967;51.154;13.812;2023-05-14T07:00:40;99690.41;;;23.15;47.19
39267;BME280;24967;51.154;13.812;2023-05-14T07:03:07;99685.19;;;23.31;46.22
39267;BME280;24967;51.154;13.812;2023-05-14T07:05:34;99685.53;;;23.05;45.97
39267;BME280;24967;51.154;13.812;2023-05-14T07:08:00;99678.38;;;22.92;46.14
39267;BME280;24967;51.154;13.812;2023-05-14T07:10:27;99677.03;;;22.83;49.15
39267;BME280;24967;51.154;13.812;2023-05-14T07:12:55;99678.84;;;22.71;47.03
39267;BME280;24967;51.154;13.812;2023-05-14T07:15:21;99672.81;;;22.50;45.09
39267;BME280;24967;51.154;13.812;2023-05-14T07:17:48;99667.75;;;22.54;46.43
39267;BME280;24967;51.154;13.812;2023-05-14T07:20:16;99666.03;;;22.23;46.61
39267;BME280;24967;51.154;13.812;2023-05-14T07:22:42;99660.94;;;22.08;47.47
39267;BME280;24967;51.154;13.812;2023-05-14T07:25:09;99657.41;;;22.07;46.43
39267;BME280;24967;51.154;13.812;2023-05-14T07:27:35;99654.09;;;21.55;45.51
39267;BME280;24967;51.154;13.812;2023-05-14T07:30:02;99658.97;;;21.40;47.44
39267;BME280;24967;51.154;13.812;2023-05-14T07:32:29;99663.22;;;21.54;46.82
39267;BME280;24967;51.154;13.812;2023-05-14T07:34:55;99666.22;;;21.46;48.14
39267;BME280;24967;51.154;13.812;2023-05-14T07:37:23;99660.72;;;21.59;47.51
39267;BME280;24967;51.154;13.812;2023-05-14T07:39:50;99659.22;;;21.63;49.17
39267;BME280;24967;51.154;13.812;2023-05-14T07:42:16;99658.31;;;21.44;47.70
39267;BME280;24967;51.154;13.812;2023-05-14T07:44:43;99661.56;;;21.15;47.85
39267;BME280;24967;51.154;13.812;2023-05-14T07:47:10;99655.06;;;21.29;50.09
39267;BME280;24967;51.154;13.812;2023-05-14T07:49:37;99652.47;;;21.47;49.02
39267;BME280;24967;51.154;13.812;2023-05-14T07:52:03;99653.59;;;21.65;48.56
39267;BME280;24967;51.154;13.812;2023-05-14T07:54:31;99648.81;;;21.60;48.82
39267;BME280;24967;51.154;13.812;2023-05-14T07:56:58;99643.47;;;21.54;47.78
39267;BME280;24967;51.154;13.812;2023-05-14T07:59:24;99642.34;;;21.68;48.73
39267;BME280;24967;51.154;13.812;2023-05-14T08:01:50;99645.03;;;21.43;46.62
39267;BME280;24967;51.154;13.812;2023-05-14T08:04:17;99632.09;;;21.45;49.34
39267;BME280;24967;51.154;13.812;2023-05-14T08:06:43;99632.09;;;21.45;46.60
39267;BME280;24967;51.154;13.812;2023-05-14T08:09:10;99640.00;;;21.46;46.98
39267;BME280;24967;51.154;13.812;2023-05-14T08:11:38;99639.25;;;21.64;46.85
39267;BME280;24967;51.154;13.812;2023-05-14T08:14:04;99641.38;;;21.81;46.41
39267;BME280;24967;51.154;13.812;2023-05-14T08:16:31;99637.41;;;21.58;46.09
39267;BME280;24967;51.154;13.812;2023-05-14T08:18:58;99635.75;;;22.07;48.08
39267;BME280;24967;51.154;13.812;2023-05-14T08:21:24;99634.69;;;22.08;46.22
39267;BME280;24967;51.154;13.812;2023-05-14T08:23:52;99640.25;;;22.13;46.92
39267;BME280;24967;51.154;13.812;2023-05-14T08:26:18;99636.97;;;21.61;43.70
39267;BME280;24967;51.154;13.812;2023-05-14T08:28:47;99629.19;;;21.08;44.35
39267;BME280;24967;51.154;13.812;2023-05-14T08:31:13;99629.88;;;20.97;44.30
39267;BME280;24967;51.154;13.812;2023-05-14T08:33:40;99631.09;;;21.01;45.97
39267;BME280;24967;51.154;13.812;2023-05-14T08:36:07;99631.44;;;21.11;46.60
39267;BME280;24967;51.154;13.812;2023-05-14T08:38:34;99628.38;;;21.46;46.17
39267;BME280;24967;51.154;13.812;2023-05-14T08:41:00;99639.41;;;21.69;45.66
39267;BME280;24967;51.154;13.812;2023-05-14T08:43:30;99631.50;;;21.68;47.09
39267;BME280;24967;51.154;13.812;2023-05-14T08:46:04;99625.06;;;21.94;46.25
39267;BME280;24967;51.154;13.812;2023-05-14T08:48:32;99624.19;;;21.93;46.27
39267;BME280;24967;51.154;13.812;2023-05-14T08:50:59;99632.34;;;22.18;45.15
39267;BME280;24967;51.154;13.812;2023-05-14T08:53:26;99629.72;;;22.05;44.58
39267;BME280;24967;51.154;13.812;2023-05-14T08:55:53;99628.28;;;22.03;44.61
39267;BME280;24967;51.154;13.812;2023-05-14T08:58:19;99632.56;;;21.67;44.94
39267;BME280;24967;51.154;13.812;2023-05-14T09:00:46;99633.78;;;21.71;45.47
39267;BME280;24967;51.154;13.812;2023-05-14T09:03:14;99635.03;;;21.68;46.15
39267;BME280;24967;51.154;13.812;2023-05-14T09:05:42;99625.53;;;21.59;46.96
39267;BME280;24967;51.154;13.812;2023-05-14T09:08:09;99622.22;;;21.57;46.20
39267;BME280;24967;51.154;13.812;2023-05-14T09:10:37;99618.09;;;21.55;44.37
39267;BME280;24967;51.154;13.812;2023-05-14T09:13:04;99619.88;;;21.42;45.53
39267;BME280;24967;51.154;13.812;2023-05-14T09:15:33;99618.19;;;21.41;44.00
39267;BME280;24967;51.154;13.812;2023-05-14T09:18:00;99617.75;;;21.44;45.47
39267;BME280;24967;51.154;13.812;2023-05-14T09:20:28;99619.47;;;21.00;46.72
39267;BME280;24967;51.154;13.812;2023-05-14T09:22:55;99616.53;;;20.64;47.50
39267;BME280;24967;51.154;13.812;2023-05-14T09:25:25;99616.38;;;20.52;46.97
39267;BME280;24967;51.154;13.812;2023-05-14T09:27:52;99613.91;;;20.37;48.62
39267;BME280;24967;51.154;13.812;2023-05-14T09:30:19;99613.22;;;20.62;49.25
39267;BME280;24967;51.154;13.812;2023-05-14T09:32:45;99615.56;;;20.90;48.16
39267;BME280;24967;51.154;13.812;2023-05-14T09:35:16;99611.38;;;21.00;47.48
39267;BME280;24967;51.154;13.812;2023-05-14T09:37:48;99605.16;;;20.55;46.06
39267;BME280;24967;51.154;13.812;2023-05-14T09:40:17;99600.50;;;20.69;47.47
39267;BME280;24967;51.154;13.812;2023-05-14T09:42:44;99597.47;;;20.52;48.66
39267;BME280;24967;51.154;13.812;2023-05-14T09:45:10;99598.41;;;20.71;48.03
39267;BME280;24967;51.154;13.812;2023-05-14T09:47:38;99595.31;;;20.67;48.23
39267;BME280;24967;51.154;13.812;2023-05-14T09:50:07;99594.38;;;20.87;47.76
39267;BME280;24967;51.154;13.812;2023-05-14T09:52:34;99589.16;;;20.92;47.48
39267;BME280;24967;51.154;13.812;2023-05-14T09:55:03;99594.91;;;20.70;46.66
39267;BME280;24967;51.154;13.812;2023-05-14T09:57:29;99591.41;;;20.50;47.63
39267;BME280;24967;51.154;13.812;2023-05-14T09:59:56;99582.34;;;20.31;47.73
39267;BME280;24967;51.154;13.812;2023-05-14T10:02:24;99584.78;;;20.46;48.08
39267;BME280;24967;51.154;13.812;2023-05-14T10:04:52;99577.88;;;20.63;48.45
39267;BME280;24967;51.154;13.812;2023-05-14T10:07:26;99580.56;;;20.70;49.63
39267;BME280;24967;51.154;13.812;2023-05-14T10:09:57;99579.97;;;20.99;48.70
39267;BME280;24967;51.154;13.812;2023-05-14T10:12:28;99578.50;;;21.03;47.96
39267;BME280;24967;51.154;13.812;2023-05-14T10:15:00;99577.06;;;21.01;48.30
39267;BME280;24967;51.154;13.812;2023-05-14T10:17:31;99563.16;;;20.97;48.04
39267;BME280;24967;51.154;13.812;2023-05-14T10:19:59;99561.34;;;20.85;48.90
39267;BME280;24967;51.154;13.812;2023-05-14T10:22:30;99558.19;;;20.94;48.86
39267;BME280;24967;51.154;13.812;2023-05-14T10:24:59;99558.16;;;21.01;47.64
39267;BME280;24967;51.154;13.812;2023-05-14T10:27:28;99551.16;;;21.18;47.75
39267;BME280;24967;51.154;13.812;2023-05-14T10:29:56;99552.56;;;21.27;46.39
39267;BME280;24967;51.154;13.812;2023-05-14T10:32:23;99550.28;;;21.24;45.91
39267;BME280;24967;51.154;13.812;2023-05-14T10:34:51;99541.28;;;21.37;47.28
39267;BME280;24967;51.154;13.812;2023-05-14T10:37:20;99542.72;;;21.40;45.89
39267;BME280;24967;51.154;13.812;2023-05-14T10:39:50;99542.63;;;21.71;44.49
39267;BME280;24967;51.154;13.812;2023-05-14T10:42:19;99531.59;;;22.10;44.27
39267;BME280;24967;51.154;13.812;2023-05-14T10:44:59;99533.53;;;22.58;44.37
39267;BME280;24967;51.154;13.812;2023-05-14T10:47:26;99528.50;;;22.61;42.49
39267;BME280;24967;51.154;13.812;2023-05-14T10:49:54;99526.59;;;22.62;43.74
39267;BME280;24967;51.154;13.812;2023-05-14T10:52:23;99530.13;;;22.62;42.49
39267;BME280;24967;51.154;13.812;2023-05-14T10:54:51;99528.94;;;22.58;40.85
39267;BME280;24967;51.154;13.812;2023-05-14T10:57:19;99531.69;;;22.40;41.82
39267;BME280;24967;51.154;13.812;2023-05-14T10:59:46;99531.22;;;22.43;42.12
39267;BME280;24967;51.154;13.812;2023-05-14T11:02:22;99516.88;;;22.43;42.84
39267;BME280;24967;51.154;13.812;2023-05-14T11:04:55;99512.28;;;21.88;42.78
39267;BME280;24967;51.154;13.812;2023-05-14T11:07:24;99519.88;;;21.54;44.12
39267;BME280;24967;51.154;13.812;2023-05-14T11:09:53;99509.00;;;21.42;44.77
39267;BME280;24967;51.154;13.812;2023-05-14T11:12:22;99505.44;;;21.67;44.70
39267;BME280;24967;51.154;13.812;2023-05-14T11:14:49;99511.28;;;21.14;41.91
39267;BME280;24967;51.154;13.812;2023-05-14T11:17:45;99503.84;;;21.09;44.14
39267;BME280;24967;51.154;13.812;2023-05-14T11:20:13;99510.13;;;20.96;45.89
39267;BME280;24967;51.154;13.812;2023-05-14T11:22:42;99502.34;;;21.13;45.50
39267;BME280;24967;51.154;13.812;2023-05-14T11:25:09;99505.81;;;21.20;47.12
39267;BME280;24967;51.154;13.812;2023-05-14T11:27:39;99506.31;;;21.11;46.25
39267;BME280;24967;51.154;13.812;2023-05-14T11:30:12;99496.66;;;21.21;46.19
39267;BME280;24967;51.154;13.812;2023-05-14T11:32:39;99500.75;;;21.56;46.65
39267;BME280;24967;51.154;13.812;2023-05-14T11:35:09;99497.06;;;21.68;43.99
39267;BME280;24967;51.154;13.812;2023-05-14T11:37:36;99491.13;;;21.78;43.88
39267;BME280;24967;51.154;13.812;2023-05-14T11:40:07;99496.28;;;22.23;45.93
39267;BME280;24967;51.154;13.812;2023-05-14T11:42:35;99488.34;;;22.40;43.02
39267;BME280;24967;51.154;13.812;2023-05-14T11:45:02;99491.00;;;22.28;44.66
39267;BME280;24967;51.154;13.812;2023-05-14T11:47:29;99486.78;;;22.32;43.89
39267;BME280;24967;51.154;13.812;2023-05-14T11:49:55;99484.72;;;22.46;43.83
39267;BME280;24967;51.154;13.812;2023-05-14T11:52:23;99486.53;;;22.52;44.05
39267;BME280;24967;51.154;13.812;2023-05-14T11:54:50;99479.13;;;22.29;43.77
39267;BME280;24967;51.154;13.812;2023-05-14T11:57:18;99478.81;;;22.68;44.10
39267;BME280;24967;51.154;13.812;2023-05-14T11:59:47;99483.50;;;22.60;43.58
39267;BME280;24967;51.154;13.812;2023-05-14T12:02:14;99471.75;;;22.67;42.48
39267;BME280;24967;51.154;13.812;2023-05-14T12:04:42;99465.47;;;22.36;43.08
39267;BME280;24967;51.154;13.812;2023-05-14T12:07:10;99465.47;;;22.36;43.18
39267;BME280;24967;51.154;13.812;2023-05-14T12:09:41;99470.44;;;22.39;43.45
39267;BME280;24967;51.154;13.812;2023-05-14T12:12:13;99458.97;;;22.55;43.75
39267;BME280;24967;51.154;13.812;2023-05-14T12:14:41;99456.06;;;22.38;42.97
39267;BME280;24967;51.154;13.812;2023-05-14T12:17:13;99465.13;;;22.14;44.02
39267;BME280;24967;51.154;13.812;2023-05-14T12:19:40;99450.19;;;21.93;44.36
39267;BME280;24967;51.154;13.812;2023-05-14T12:22:08;99443.41;;;22.02;42.89
39267;BME280;24967;51.154;13.812;2023-05-14T12:24:35;99451.38;;;22.15;43.57
39267;BME280;24967;51.154;13.812;2023-05-14T12:27:06;99453.03;;;21.98;42.29
39267;BME280;24967;51.154;13.812;2023-05-14T12:29:34;99441.41;;;21.79;42.96
39267;BME280;24967;51.154;13.812;2023-05-14T12:32:06;99449.53;;;21.79;43.21
39267;BME280;24967;51.154;13.812;2023-05-14T12:34:33;99442.84;;;21.82;42.28
39267;BME280;24967;51.154;13.812;2023-05-14T12:37:00;99440.94;;;22.01;43.66
39267;BME280;24967;51.154;13.812;2023-05-14T12:39:26;99438.25;;;21.82;45.49
39267;BME280;24967;51.154;13.812;2023-05-14T12:41:53;99435.84;;;21.74;46.35
39267;BME280;24967;51.154;13.812;2023-05-14T12:44:21;99438.91;;;21.78;46.32
39267;BME280;24967;51.154;13.812;2023-05-14T12:46:47;99431.84;;;21.58;46.41
39267;BME280;24967;51.154;13.812;2023-05-14T12:49:14;99430.94;;;21.46;47.25
39267;BME280;24967;51.154;13.812;2023-05-14T12:51:41;99427.06;;;21.79;46.59